Archival Weather

Chicago O'Hare International

Chicago, Illinois (KORD)

Report from: Tuesday, December 6, 2022 5:51 PM CST
Current time: Friday, February 3, 2023 11:45 PM CST

Current weather
Weather history
Weather forecast

Present weatherMist
Temperature6.1°C (43.0°F)
Wind chill4.6°C (40.3°F)
Dew point2.8°C (37.0°F)
Winds 4 kts (2.1 m/s, 4.6 mph) East-Northeast (60°)
Visibility6 mi. (9.7 km)
Clouds Ceiling: Broken clouds 1,100 ft. (335 m)
Broken clouds 2,500 ft. (762 m)
Overcast 7,000 ft. (2,134 m)
Altimeter30.02 in.Hg (1017 mB)
Relative humidity79 %
Density altitude-1,076 ft. (-328 m)
Sea-level pressure101.7 kPa (1017 mB, 30.03 in.Hg)
Max temp last 6 hours6.1°C (43.0°F)
Min temp last 6 hours5.6°C (42.1°F)
Remarks Automated weather observing station with precipitation discriminator
Pressure rising more quickly
Flight conditions Marginal Visual Meteorological Conditions
Raw dataKORD 062351Z 06004KT 6SM BR BKN011 BKN025 OVC070 06/03 A3002 RMK AO2 SLP170 T00610028 10061 20056 53005
An unhandled exception has occurred. See browser dev tools for details. Reload 🗙